Time;durP1;ratioP1;P1;durP2;ratioP2;P2;SDS_P1;SDS_P2;PMS_P1;PMS_P2;Temp;Humidity;BMP_temperature;BMP_pressure;BME280_temperature;BME280_humidity;BME280_pressure;Samples;Min_cycle;Max_cycle;Signal;HPM_P1;HPM_P2
2022/05/27 00:00:21;;;;;;;1.45;0.82;;;20.60;75.50;;;;;;5063733;28;21179;-73
2022/05/27 00:02:50;;;;;;;0.80;0.80;;;20.60;75.50;;;;;;5069492;28;20191;-70
2022/05/27 00:05:17;;;;;;;1.15;0.80;;;20.60;75.30;;;;;;5093016;28;20189;-71
2022/05/27 00:07:43;;;;;;;0.75;0.75;;;20.50;75.30;;;;;;5062824;28;20756;-72
2022/05/27 00:10:11;;;;;;;2.47;0.90;;;20.50;75.70;;;;;;5064200;28;20195;-71
2022/05/27 00:12:37;;;;;;;1.05;1.00;;;20.50;75.60;;;;;;5067697;28;20186;-73
2022/05/27 00:15:05;;;;;;;0.70;0.70;;;20.50;75.70;;;;;;5065337;28;20279;-72
2022/05/27 00:17:30;;;;;;;1.10;0.98;;;20.50;75.70;;;;;;5069116;28;20187;-72
2022/05/27 00:19:56;;;;;;;0.70;0.70;;;20.40;75.80;;;;;;5070885;28;20221;-72
2022/05/27 00:22:22;;;;;;;0.88;0.88;;;20.40;75.90;;;;;;5077078;28;20179;-71
2022/05/27 00:24:48;;;;;;;1.23;0.80;;;20.40;75.90;;;;;;5065140;28;20276;-72
2022/05/27 00:27:14;;;;;;;0.77;0.77;;;20.30;75.90;;;;;;5066655;28;20583;-72
2022/05/27 00:29:40;;;;;;;1.48;1.10;;;20.30;75.90;;;;;;5066558;28;20649;-72
2022/05/27 00:32:06;;;;;;;3.28;1.00;;;20.30;75.90;;;;;;5064265;28;20183;-71
2022/05/27 00:34:32;;;;;;;0.90;0.85;;;20.30;76.10;;;;;;5070381;28;20216;-71
2022/05/27 00:37:02;;;;;;;0.70;0.70;;;20.20;76.10;;;;;;5070755;28;20190;-71
2022/05/27 00:39:28;;;;;;;4.45;0.85;;;20.20;76.00;;;;;;5066022;28;20698;-72
2022/05/27 00:41:54;;;;;;;0.82;0.82;;;;;;;;;;5068317;28;20239;-70
2022/05/27 00:44:20;;;;;;;1.17;0.98;;;20.20;76.20;;;;;;5068621;28;20221;-70
2022/05/27 00:46:46;;;;;;;0.68;0.68;;;20.10;76.00;;;;;;5066857;28;20269;-71
2022/05/27 00:49:24;;;;;;;1.38;1.05;;;20.20;76.00;;;;;;5070630;28;20178;-70
2022/05/27 00:52:06;;;;;;;1.40;1.30;;;20.10;76.10;;;;;;5063610;28;20244;-71
2022/05/27 00:54:33;;;;;;;0.88;0.75;;;20.10;76.10;;;;;;5071897;28;20678;-72
2022/05/27 00:57:07;;;;;;;6.72;1.30;;;20.00;76.30;;;;;;5065945;28;20198;-71
2022/05/27 00:59:50;;;;;;;2.05;1.08;;;20.00;75.70;;;;;;5067912;28;20297;-71
2022/05/27 01:02:17;;;;;;;1.10;0.88;;;20.00;76.20;;;;;;5069228;28;20282;-71
2022/05/27 01:04:44;;;;;;;1.00;1.00;;;20.00;76.20;;;;;;5066435;28;20197;-72
2022/05/27 01:07:10;;;;;;;1.23;1.17;;;;;;;;;;5059219;28;20184;-70
2022/05/27 01:09:38;;;;;;;1.10;0.93;;;19.90;76.10;;;;;;5072531;28;20324;-71
2022/05/27 01:12:22;;;;;;;1.00;0.80;;;19.90;76.20;;;;;;5063392;28;20791;-71
2022/05/27 01:15:04;;;;;;;2.08;0.80;;;19.90;76.10;;;;;;5070760;28;20201;-71
2022/05/27 01:17:52;;;;;;;1.20;1.10;;;19.80;76.20;;;;;;5064475;28;20175;-71
2022/05/27 01:20:40;;;;;;;0.70;0.70;;;19.90;76.00;;;;;;5063442;28;20672;-71
2022/05/27 01:23:24;;;;;;;1.90;0.80;;;19.80;76.10;;;;;;5093412;28;20658;-71
2022/05/27 01:26:00;;;;;;;0.70;0.70;;;19.80;76.10;;;;;;5070060;28;20186;-71
2022/05/27 01:29:03;;;;;;;2.30;0.98;;;19.80;76.00;;;;;;5064494;28;20225;-72
2022/05/27 01:31:47;;;;;;;0.93;0.93;;;19.80;75.90;;;;;;5055668;28;20247;-71
2022/05/27 01:34:45;;;;;;;1.63;0.75;;;19.80;75.90;;;;;;5070282;28;20193;-71
2022/05/27 01:37:44;;;;;;;1.10;1.10;;;19.80;76.00;;;;;;5067292;28;20187;-71
2022/05/27 01:40:10;;;;;;;2.55;0.80;;;;;;;;;;5010796;28;20233;-72
2022/05/27 01:42:45;;;;;;;1.77;0.80;;;19.80;75.80;;;;;;5003512;28;20225;-72
2022/05/27 01:45:26;;;;;;;0.70;0.70;;;19.80;75.70;;;;;;5004350;28;20199;-72
2022/05/27 01:48:07;;;;;;;2.00;0.80;;;;;;;;;;5003034;28;20205;-72
2022/05/27 01:50:49;;;;;;;0.80;0.80;;;19.70;75.80;;;;;;5002232;28;20205;-71
2022/05/27 01:53:51;;;;;;;1.52;0.90;;;19.70;75.70;;;;;;5006107;28;20797;-72
2022/05/27 01:56:31;;;;;;;0.77;0.77;;;19.70;75.80;;;;;;4998518;28;20735;-72
2022/05/27 01:59:14;;;;;;;0.63;0.63;;;19.70;75.40;;;;;;5002889;28;20200;-71
2022/05/27 02:01:47;;;;;;;0.90;0.90;;;19.70;75.50;;;;;;5001829;28;20200;-72
2022/05/27 02:04:25;;;;;;;0.90;0.90;;;19.70;75.60;;;;;;5009208;28;20316;-72
2022/05/27 02:06:57;;;;;;;3.58;0.73;;;19.60;75.40;;;;;;5005412;28;20287;-71
2022/05/27 02:09:32;;;;;;;0.80;0.80;;;19.60;75.50;;;;;;5005305;28;20196;-71
2022/05/27 02:12:04;;;;;;;0.98;0.90;;;19.60;75.90;;;;;;4998984;28;20203;-71
2022/05/27 02:14:46;;;;;;;1.02;1.00;;;19.60;75.90;;;;;;5000856;28;20293;-71
2022/05/27 02:17:16;;;;;;;0.60;0.60;;;19.50;75.90;;;;;;5049613;28;20248;-71
2022/05/27 02:19:50;;;;;;;1.75;1.00;;;19.50;76.10;;;;;;5070634;28;20285;-71
2022/05/27 02:22:25;;;;;;;1.02;1.02;;;19.40;76.40;;;;;;5060013;28;20240;-71
2022/05/27 02:24:57;;;;;;;1.33;1.13;;;19.40;76.60;;;;;;5064336;28;20223;-71
2022/05/27 02:27:43;;;;;;;1.08;1.08;;;19.40;76.50;;;;;;5063175;28;20191;-72
2022/05/27 02:30:13;;;;;;;0.80;0.80;;;19.30;76.70;;;;;;5067124;28;20187;-71
2022/05/27 02:35:07;;;;;;;1.40;0.80;;;19.30;76.70;;;;;;5069791;28;20652;-72
2022/05/27 02:35:40;;;;;;;0.90;0.90;;;19.20;76.70;;;;;;5063609;28;20187;-72
2022/05/27 02:38:06;;;;;;;1.67;1.30;;;19.20;77.00;;;;;;5063087;28;20657;-72
2022/05/27 02:40:47;;;;;;;1.02;1.02;;;19.10;76.70;;;;;;5065550;28;20189;-72
2022/05/27 02:43:18;;;;;;;1.00;1.00;;;19.10;76.70;;;;;;5062193;28;20599;-72
2022/05/27 02:45:44;;;;;;;1.38;1.38;;;;;;;;;;5064408;28;20180;-72
2022/05/27 02:48:28;;;;;;;3.25;1.17;;;19.00;77.20;;;;;;5065312;28;20186;-72
2022/05/27 02:51:00;;;;;;;1.10;1.10;;;19.00;77.80;;;;;;5063187;28;20228;-72
2022/05/27 02:53:36;;;;;;;0.95;0.95;;;18.90;77.70;;;;;;5067609;28;20252;-71
2022/05/27 02:56:17;;;;;;;1.27;1.25;;;18.90;78.00;;;;;;5087808;28;20188;-71
2022/05/27 02:58:43;;;;;;;1.15;1.10;;;18.90;79.10;;;;;;5061926;28;20238;-71
2022/05/27 03:01:09;;;;;;;1.35;1.35;;;;;;;;;;5064506;28;20886;-72
2022/05/27 03:03:35;;;;;;;1.10;1.10;;;18.80;79.70;;;;;;5068719;28;20204;-71
2022/05/27 03:06:38;;;;;;;1.05;1.05;;;18.80;78.30;;;;;;5062450;28;20185;-71
2022/05/27 03:09:18;;;;;;;1.17;1.15;;;18.70;79.00;;;;;;5030886;28;20775;-71
2022/05/27 03:12:05;;;;;;;1.45;1.35;;;18.70;79.20;;;;;;5026351;28;20241;-70
2022/05/27 03:14:43;;;;;;;1.38;1.27;;;18.70;79.20;;;;;;5013204;28;20232;-71
2022/05/27 03:17:32;;;;;;;0.82;0.82;;;18.70;80.20;;;;;;5035592;28;20944;-72
2022/05/27 03:20:33;;;;;;;1.13;1.13;;;18.70;80.50;;;;;;5037657;28;20971;-71
2022/05/27 03:23:05;;;;;;;1.73;1.63;;;18.60;80.40;;;;;;5014124;28;20184;-71
2022/05/27 03:25:37;;;;;;;1.35;1.35;;;18.60;81.10;;;;;;5032411;28;20203;-72
2022/05/27 03:28:17;;;;;;;1.02;1.02;;;18.60;80.80;;;;;;5036063;28;20188;-73
2022/05/27 03:30:54;;;;;;;1.50;1.40;;;18.50;81.40;;;;;;5038215;28;20367;-72
2022/05/27 03:33:36;;;;;;;0.88;0.88;;;18.50;80.10;;;;;;5036606;28;20195;-72
2022/05/27 03:36:11;;;;;;;1.23;1.23;;;18.40;79.80;;;;;;5021544;28;20184;-72
2022/05/27 03:38:50;;;;;;;1.27;1.27;;;18.40;80.10;;;;;;5038216;28;20221;-70
2022/05/27 03:41:40;;;;;;;1.38;1.38;;;18.40;80.90;;;;;;5036346;28;20188;-71
2022/05/27 03:44:06;;;;;;;0.90;0.90;;;18.50;81.10;;;;;;5033057;28;20183;-73
2022/05/27 03:46:37;;;;;;;1.13;1.13;;;18.50;80.80;;;;;;5062024;28;20241;-71
2022/05/27 03:49:05;;;;;;;1.27;1.27;;;18.50;80.60;;;;;;5064307;28;20214;-71
2022/05/27 03:51:51;;;;;;;0.95;0.95;;;18.50;80.40;;;;;;5067570;28;20187;-71
2022/05/27 03:54:17;;;;;;;1.25;1.25;;;18.50;81.10;;;;;;5070567;28;20186;-71
2022/05/27 03:56:43;;;;;;;1.20;1.10;;;18.50;81.30;;;;;;5066540;28;20187;-72
2022/05/27 03:59:14;;;;;;;1.73;1.55;;;18.50;81.10;;;;;;5066405;28;20215;-72
2022/05/27 04:01:42;;;;;;;1.10;1.05;;;18.50;80.70;;;;;;5059962;28;20179;-72
2022/05/27 04:04:10;;;;;;;1.42;1.33;;;18.60;80.60;;;;;;5059134;28;20187;-72
2022/05/27 04:06:36;;;;;;;2.38;1.70;;;18.60;80.50;;;;;;5065245;28;20270;-72
2022/05/27 04:09:03;;;;;;;2.28;1.63;;;18.60;80.60;;;;;;5061882;28;20187;-71
2022/05/27 04:11:30;;;;;;;1.25;1.25;;;18.60;80.50;;;;;;5062786;28;20174;-71
2022/05/27 04:13:56;;;;;;;2.20;1.52;;;18.60;80.50;;;;;;5089933;28;20199;-71
2022/05/27 04:16:22;;;;;;;1.02;1.02;;;18.70;80.90;;;;;;5067267;28;20236;-72
2022/05/27 04:18:48;;;;;;;1.58;1.20;;;18.70;80.60;;;;;;5068928;28;20565;-72
2022/05/27 04:21:15;;;;;;;2.25;1.25;;;18.70;80.80;;;;;;5066056;28;20182;-72
2022/05/27 04:23:40;;;;;;;1.52;1.27;;;18.70;80.30;;;;;;5070210;28;20634;-72
2022/05/27 04:26:06;;;;;;;1.23;1.23;;;;;;;;;;5068320;28;20275;-72
2022/05/27 04:28:33;;;;;;;1.20;1.20;;;18.80;80.10;;;;;;5071817;28;20321;-72
2022/05/27 04:30:59;;;;;;;1.10;1.10;;;18.80;80.60;;;;;;5057901;28;20191;-72
2022/05/27 04:33:27;;;;;;;3.38;1.35;;;;;;;;;;5071935;28;20187;-72
2022/05/27 04:35:54;;;;;;;2.78;1.40;;;18.90;81.40;;;;;;5058214;28;20186;-72
2022/05/27 04:38:23;;;;;;;1.55;1.45;;;18.90;81.70;;;;;;5073900;28;20304;-72
2022/05/27 04:40:49;;;;;;;1.45;1.45;;;19.00;81.30;;;;;;5075046;28;20598;-72
2022/05/27 04:43:15;;;;;;;2.15;2.00;;;19.00;80.90;;;;;;5068189;28;20230;-72
2022/05/27 04:45:41;;;;;;;2.72;1.80;;;19.00;81.20;;;;;;5068966;28;20182;-72
2022/05/27 04:48:08;;;;;;;1.35;1.35;;;19.00;81.20;;;;;;5073545;28;20183;-72
2022/05/27 04:50:33;;;;;;;1.58;1.48;;;19.00;81.20;;;;;;5068947;28;20269;-71
2022/05/27 04:53:00;;;;;;;1.83;1.50;;;19.10;80.50;;;;;;5070167;28;20262;-74
2022/05/27 04:55:26;;;;;;;1.10;1.10;;;19.10;80.00;;;;;;5069437;28;20205;-74
2022/05/27 04:57:59;;;;;;;0.82;0.82;;;19.10;79.90;;;;;;5067843;28;20699;-74
2022/05/27 05:00:29;;;;;;;1.40;1.40;;;19.20;79.60;;;;;;5055430;28;20195;-74
2022/05/27 05:02:55;;;;;;;2.58;1.25;;;19.20;79.50;;;;;;5069182;28;20182;-74
2022/05/27 05:05:24;;;;;;;1.48;1.38;;;19.20;79.60;;;;;;5065500;28;20175;-75
2022/05/27 05:08:07;;;;;;;1.65;1.50;;;19.20;79.50;;;;;;5065034;28;20205;-75
2022/05/27 05:10:34;;;;;;;1.25;1.25;;;19.30;79.60;;;;;;5067292;28;20929;-76
2022/05/27 05:13:01;;;;;;;1.30;1.30;;;19.30;79.30;;;;;;5070214;28;20667;-75
2022/05/27 05:15:27;;;;;;;2.60;1.30;;;19.40;79.30;;;;;;5068075;28;20198;-75
2022/05/27 05:17:53;;;;;;;1.77;1.67;;;19.40;79.10;;;;;;5065344;28;20182;-78
2022/05/27 05:20:29;;;;;;;3.15;1.33;;;19.40;79.10;;;;;;5066784;28;20218;-74
2022/05/27 05:22:54;;;;;;;1.60;1.60;;;19.50;79.10;;;;;;5060551;28;20186;-74
2022/05/27 05:25:23;;;;;;;1.48;1.38;;;19.60;78.90;;;;;;5068825;28;20637;-72
2022/05/27 05:27:49;;;;;;;1.58;1.48;;;19.60;79.00;;;;;;5053596;28;20274;-74
2022/05/27 05:30:17;;;;;;;1.13;1.13;;;19.70;78.80;;;;;;5065239;28;20264;-71
2022/05/27 05:32:43;;;;;;;1.75;1.65;;;19.70;78.80;;;;;;5066495;28;20289;-72
2022/05/27 05:35:10;;;;;;;0.93;0.93;;;19.80;78.70;;;;;;5070165;28;20189;-72
2022/05/27 05:37:36;;;;;;;3.13;1.35;;;19.90;78.60;;;;;;5068715;28;20202;-72
2022/05/27 05:40:03;;;;;;;2.75;1.25;;;19.90;78.40;;;;;;5069564;28;20792;-71
2022/05/27 05:42:29;;;;;;;2.00;1.58;;;20.00;78.40;;;;;;5063363;28;20185;-69
2022/05/27 05:44:55;;;;;;;1.48;1.48;;;20.00;78.30;;;;;;5068560;28;20676;-72
2022/05/27 05:47:21;;;;;;;1.25;1.23;;;20.10;78.20;;;;;;5084430;28;20183;-72
2022/05/27 05:49:47;;;;;;;1.45;1.45;;;20.10;78.20;;;;;;5061233;28;20198;-72
2022/05/27 05:52:13;;;;;;;1.27;1.20;;;20.20;78.10;;;;;;5065127;28;20175;-71
2022/05/27 05:54:39;;;;;;;1.23;1.23;;;20.30;78.10;;;;;;5066767;28;20183;-71
2022/05/27 05:57:05;;;;;;;1.00;1.00;;;20.30;77.80;;;;;;5070847;28;20222;-71
2022/05/27 05:59:34;;;;;;;3.60;1.40;;;20.30;77.70;;;;;;5068543;28;20214;-71
2022/05/27 06:02:00;;;;;;;1.95;1.73;;;20.40;77.60;;;;;;5068888;28;20756;-72
2022/05/27 06:04:27;;;;;;;1.73;1.63;;;20.40;77.10;;;;;;5066158;28;20183;-71
2022/05/27 06:06:53;;;;;;;1.75;1.40;;;20.50;77.20;;;;;;5064143;28;20191;-72
2022/05/27 06:09:22;;;;;;;1.65;1.58;;;20.60;77.20;;;;;;5067043;28;20190;-71
2022/05/27 06:11:48;;;;;;;3.65;1.67;;;20.60;76.90;;;;;;5062593;28;20657;-71
2022/05/27 06:14:14;;;;;;;1.23;1.23;;;20.70;77.10;;;;;;5065169;28;20649;-72
2022/05/27 06:16:40;;;;;;;1.30;1.30;;;20.70;76.90;;;;;;5061622;28;20552;-72
2022/05/27 06:19:06;;;;;;;1.52;1.42;;;;;;;;;;5060196;28;20302;-72
2022/05/27 06:21:32;;;;;;;1.88;1.58;;;20.80;76.70;;;;;;5058589;28;20670;-72
2022/05/27 06:23:58;;;;;;;5.72;2.85;;;;;;;;;;5065656;28;20183;-71
2022/05/27 06:26:23;;;;;;;3.80;3.25;;;20.90;76.60;;;;;;5061201;28;20193;-71
2022/05/27 06:34:24;;;;;;;6.53;1.92;;;21.10;76.40;;;;;;5061578;28;20201;-71
2022/05/27 06:36:55;;;;;;;2.80;2.70;;;21.30;76.00;;;;;;5064815;28;20607;-71
2022/05/27 06:39:22;;;;;;;8.38;5.15;;;21.30;76.10;;;;;;5060547;28;20291;-71
2022/05/27 06:41:48;;;;;;;7.10;3.03;;;21.40;75.90;;;;;;5060131;28;20189;-71
2022/05/27 06:44:14;;;;;;;2.30;2.20;;;21.50;75.60;;;;;;5060496;28;20194;-71
2022/05/27 06:46:40;;;;;;;2.55;2.45;;;21.60;75.50;;;;;;5062593;28;20179;-71
2022/05/27 06:49:06;;;;;;;2.70;2.40;;;21.70;75.40;;;;;;5064444;28;20590;-70
2022/05/27 06:51:38;;;;;;;1.90;1.90;;;21.80;75.30;;;;;;5060151;28;20182;-69
2022/05/27 06:54:05;;;;;;;1.77;1.70;;;21.90;75.10;;;;;;5068437;28;20198;-71
2022/05/27 06:56:35;;;;;;;1.48;1.48;;;22.00;75.00;;;;;;5059026;28;20240;-69
2022/05/27 06:59:01;;;;;;;2.22;1.98;;;22.10;74.80;;;;;;5064811;28;20593;-69
2022/05/27 07:01:27;;;;;;;1.15;1.15;;;;;;;;;;5058811;28;20182;-69
2022/05/27 07:03:53;;;;;;;1.50;1.35;;;;;;;;;;5062746;28;20179;-70
2022/05/27 07:06:19;;;;;;;1.77;1.75;;;22.40;74.10;;;;;;5065934;28;20179;-70
2022/05/27 07:08:45;;;;;;;1.70;1.63;;;22.40;73.60;;;;;;5064147;28;20564;-70
2022/05/27 07:11:11;;;;;;;4.60;1.90;;;;;;;;;;5065261;28;20182;-70
2022/05/27 07:13:37;;;;;;;1.52;1.50;;;22.60;73.50;;;;;;5065363;28;20717;-70
2022/05/27 07:16:04;;;;;;;1.27;1.17;;;22.50;71.70;;;;;;5063245;28;20178;-70
2022/05/27 07:18:31;;;;;;;1.48;1.48;;;22.60;71.60;;;;;;5081625;28;20213;-71
2022/05/27 07:21:02;;;;;;;1.40;1.30;;;22.60;71.60;;;;;;5065291;28;20580;-70
2022/05/27 07:23:28;;;;;;;1.10;1.10;;;22.60;71.70;;;;;;5061459;28;20180;-70
2022/05/27 07:25:54;;;;;;;1.52;1.52;;;22.70;71.70;;;;;;5059388;28;20187;-70
2022/05/27 07:28:20;;;;;;;1.20;1.20;;;22.70;71.80;;;;;;5061617;28;20183;-71
2022/05/27 07:30:46;;;;;;;2.22;1.55;;;22.70;72.00;;;;;;5058693;28;20218;-70
2022/05/27 07:33:12;;;;;;;1.38;1.27;;;22.80;72.10;;;;;;5054543;28;20260;-70
2022/05/27 07:35:38;;;;;;;1.38;1.38;;;22.80;71.80;;;;;;5065111;28;20553;-70
2022/05/27 07:38:03;;;;;;;1.30;1.30;;;22.90;71.90;;;;;;5062679;28;20182;-71
2022/05/27 07:40:29;;;;;;;4.97;1.70;;;23.00;70.40;;;;;;5062939;28;20782;-71
2022/05/27 07:42:55;;;;;;;1.13;1.13;;;;;;;;;;5058001;28;20186;-70
2022/05/27 07:45:27;;;;;;;1.02;1.02;;;23.10;71.00;;;;;;5065043;28;20239;-70
2022/05/27 07:47:56;;;;;;;1.23;1.10;;;23.20;69.80;;;;;;5064930;28;21476;-71
2022/05/27 07:50:23;;;;;;;1.40;1.30;;;23.30;70.00;;;;;;5065744;28;20646;-71
2022/05/27 07:52:49;;;;;;;1.20;1.20;;;23.30;69.80;;;;;;5061487;28;20631;-71
2022/05/27 07:55:16;;;;;;;4.22;1.15;;;23.40;70.20;;;;;;5062712;28;20725;-71
2022/05/27 07:57:46;;;;;;;2.67;1.33;;;23.40;70.20;;;;;;5063291;28;20373;-71
2022/05/27 08:00:15;;;;;;;1.58;1.27;;;23.50;70.10;;;;;;5064443;28;20207;-70
2022/05/27 08:02:41;;;;;;;1.33;1.33;;;23.60;69.50;;;;;;5054763;28;20194;-71
2022/05/27 08:05:12;;;;;;;2.92;1.55;;;23.70;69.10;;;;;;5055346;28;20565;-71
2022/05/27 08:07:38;;;;;;;3.50;1.70;;;23.70;68.80;;;;;;5064240;28;20183;-70
2022/05/27 08:10:05;;;;;;;1.42;1.38;;;23.70;68.70;;;;;;5065251;28;20343;-71
2022/05/27 08:12:32;;;;;;;3.65;2.00;;;23.80;68.00;;;;;;5068824;28;20185;-71
2022/05/27 08:14:58;;;;;;;2.33;1.75;;;;;;;;;;5068984;28;20274;-71
2022/05/27 08:17:24;;;;;;;1.67;1.58;;;;;;;;;;5064061;28;20182;-71
2022/05/27 08:19:50;;;;;;;1.80;1.70;;;23.80;68.00;;;;;;5064797;28;20712;-71
2022/05/27 08:22:15;;;;;;;1.75;1.65;;;23.80;68.80;;;;;;5065970;28;20247;-71
2022/05/27 08:24:41;;;;;;;1.95;1.60;;;;;;;;;;5068123;28;20265;-70
2022/05/27 08:27:08;;;;;;;2.65;1.27;;;24.00;68.70;;;;;;5063973;28;20198;-71
2022/05/27 08:29:34;;;;;;;1.63;1.52;;;;;;;;;;5064098;28;20187;-71
2022/05/27 08:32:03;;;;;;;2.55;1.58;;;24.20;68.40;;;;;;5070503;28;20206;-70
2022/05/27 08:40:01;;;;;;;2.00;1.90;;;;;;;;;;5065165;28;20225;-69
2022/05/27 08:43:09;;;;;;;2.40;1.63;;;24.70;68.40;;;;;;5068513;28;20267;-69
2022/05/27 08:45:41;;;;;;;1.80;1.77;;;24.80;67.60;;;;;;5000184;28;20296;-69
2022/05/27 08:48:09;;;;;;;3.85;1.38;;;24.90;68.60;;;;;;5001058;28;20204;-69
2022/05/27 08:50:46;;;;;;;4.07;1.35;;;25.00;67.00;;;;;;5000684;28;20188;-69
2022/05/27 08:53:45;;;;;;;1.45;1.20;;;25.20;67.40;;;;;;5001671;28;20201;-70
2022/05/27 09:01:51;;;;;;;4.70;1.60;;;25.50;67.20;;;;;;5000255;28;20195;-70
2022/05/27 09:04:27;;;;;;;1.55;1.55;;;25.60;65.40;;;;;;5001500;28;20188;-70
2022/05/27 09:07:03;;;;;;;2.40;1.60;;;25.70;65.20;;;;;;4999420;28;20249;-70
2022/05/27 09:09:30;;;;;;;1.52;1.42;;;25.80;65.20;;;;;;4997298;28;20330;-72
2022/05/27 09:12:30;;;;;;;2.25;1.55;;;25.90;64.90;;;;;;5000125;28;20655;-73
2022/05/27 09:15:17;;;;;;;1.55;1.55;;;25.90;65.20;;;;;;4999776;28;20287;-71
2022/05/27 09:18:24;;;;;;;1.70;1.60;;;26.10;65.70;;;;;;5001470;28;20277;-71
2022/05/27 09:20:54;;;;;;;2.50;1.70;;;26.20;65.60;;;;;;4987673;28;20202;-70
2022/05/27 09:24:00;;;;;;;2.10;1.20;;;26.30;64.70;;;;;;4989896;28;20195;-71
2022/05/27 09:26:48;;;;;;;1.42;1.33;;;26.50;65.70;;;;;;4897717;29;20231;-70
2022/05/27 09:29:29;;;;;;;2.47;1.85;;;26.60;65.40;;;;;;4902398;29;20273;-70
2022/05/27 09:32:03;;;;;;;1.58;1.48;;;26.80;65.00;;;;;;4904605;29;20200;-70
2022/05/27 09:34:32;;;;;;;1.75;1.65;;;26.90;65.10;;;;;;4902545;29;20197;-70
2022/05/27 09:37:04;;;;;;;1.60;1.50;;;27.10;64.10;;;;;;4902640;29;20196;-70
2022/05/27 09:39:31;;;;;;;1.50;1.40;;;27.20;64.30;;;;;;4902676;29;20699;-70
2022/05/27 09:42:24;;;;;;;1.67;1.60;;;27.30;63.40;;;;;;4900264;29;20226;-70
2022/05/27 09:44:55;;;;;;;2.80;1.77;;;27.40;62.30;;;;;;4901428;29;20207;-70
2022/05/27 09:47:25;;;;;;;2.20;1.85;;;27.60;63.30;;;;;;4902243;29;20187;-71
2022/05/27 09:49:58;;;;;;;2.25;1.40;;;27.80;63.30;;;;;;4903015;29;20216;-70
2022/05/27 09:52:27;;;;;;;1.13;1.13;;;28.00;62.50;;;;;;4902183;29;20192;-71
2022/05/27 09:54:59;;;;;;;1.75;1.40;;;28.10;61.80;;;;;;4902253;29;20566;-70
2022/05/27 09:57:30;;;;;;;1.70;1.60;;;28.20;62.10;;;;;;4928103;28;20325;-70
2022/05/27 09:59:56;;;;;;;2.50;1.73;;;;;;;;;;4966012;28;20221;-70
2022/05/27 10:02:22;;;;;;;3.10;1.58;;;;;;;;;;4977873;28;20287;-70
2022/05/27 10:04:54;;;;;;;1.85;1.75;;;28.50;60.70;;;;;;5059235;28;20187;-71
2022/05/27 10:07:42;;;;;;;4.72;1.50;;;28.60;61.10;;;;;;5068704;28;20220;-71
2022/05/27 10:10:31;;;;;;;1.42;1.40;;;28.80;59.80;;;;;;5064623;28;20178;-71
2022/05/27 10:13:12;;;;;;;4.47;1.90;;;29.20;60.00;;;;;;5065827;28;20183;-70
2022/05/27 10:15:38;;;;;;;1.95;1.65;;;29.50;58.70;;;;;;5066343;28;21699;-70
2022/05/27 10:18:25;;;;;;;3.65;1.63;;;29.70;58.40;;;;;;5070565;28;20690;-69
2022/05/27 10:21:04;;;;;;;3.65;1.65;;;30.20;57.60;;;;;;5071134;28;20193;-70
2022/05/27 10:23:34;;;;;;;1.20;1.10;;;30.60;57.40;;;;;;5072393;28;20262;-70
2022/05/27 10:26:34;;;;;;;2.50;1.48;;;31.10;55.80;;;;;;5070343;28;20314;-70
2022/05/27 10:29:11;;;;;;;3.03;1.75;;;31.40;54.80;;;;;;5068801;28;20934;-70
2022/05/27 10:31:47;;;;;;;1.42;1.38;;;31.60;56.00;;;;;;5065098;28;20182;-70
2022/05/27 10:34:36;;;;;;;0.95;0.95;;;32.10;54.20;;;;;;5070024;28;21097;-68
2022/05/27 10:37:28;;;;;;;4.68;1.55;;;32.50;55.00;;;;;;5067343;28;20188;-69
2022/05/27 10:40:06;;;;;;;2.05;1.63;;;33.00;53.30;;;;;;5052348;28;20214;-69
2022/05/27 10:42:46;;;;;;;1.90;1.38;;;33.70;52.50;;;;;;5070917;28;20671;-72
2022/05/27 10:45:12;;;;;;;2.42;1.33;;;;;;;;;;5065957;28;20186;-72
2022/05/27 10:48:07;;;;;;;1.42;1.02;;;34.70;50.60;;;;;;5066788;28;20182;-72
2022/05/27 10:50:53;;;;;;;2.03;1.10;;;35.40;48.40;;;;;;5070807;28;20980;-72
2022/05/27 10:53:56;;;;;;;1.98;0.95;;;35.90;48.20;;;;;;5068262;28;20222;-71
2022/05/27 10:56:28;;;;;;;4.10;1.08;;;;;;;;;;5091125;28;20177;-72
2022/05/27 11:02:41;;;;;;;5.63;1.15;;;37.00;45.90;;;;;;5073320;28;20460;-71
2022/05/27 11:05:25;;;;;;;3.60;0.90;;;37.40;45.50;;;;;;5067395;28;20248;-71
2022/05/27 11:08:20;;;;;;;2.45;1.00;;;37.60;45.50;;;;;;5056256;28;20189;-71
2022/05/27 11:11:30;;;;;;;11.60;1.40;;;38.10;44.50;;;;;;5060205;28;20186;-72
2022/05/27 11:17:20;;;;;;;2.58;1.25;;;38.40;44.40;;;;;;5069272;28;20647;-71
2022/05/27 11:20:24;;;;;;;1.25;1.20;;;38.80;44.60;;;;;;5062577;28;20308;-71
2022/05/27 11:23:36;;;;;;;3.22;1.30;;;39.10;43.80;;;;;;5016434;28;20194;-72
2022/05/27 11:26:16;;;;;;;1.98;1.25;;;39.50;43.90;;;;;;5022417;28;20191;-70
2022/05/27 11:28:53;;;;;;;6.30;1.17;;;39.60;44.70;;;;;;5019091;28;20187;-73
2022/05/27 11:31:50;;;;;;;1.27;1.13;;;39.90;44.90;;;;;;5017316;28;20324;-71
2022/05/27 11:34:46;;;;;;;1.70;1.05;;;40.20;42.20;;;;;;5023572;28;20646;-71
2022/05/27 11:37:29;;;;;;;2.20;1.15;;;40.30;43.10;;;;;;5022250;28;20235;-71
2022/05/27 11:40:09;;;;;;;2.88;1.27;;;40.40;41.90;;;;;;5010256;28;20231;-71
2022/05/27 11:42:55;;;;;;;3.60;1.63;;;40.60;43.10;;;;;;5008984;28;20187;-70
2022/05/27 11:45:30;;;;;;;0.95;0.95;;;40.60;42.30;;;;;;5009271;28;20475;-71
2022/05/27 11:48:09;;;;;;;1.55;1.05;;;40.90;42.60;;;;;;5003196;28;20210;-74
2022/05/27 11:51:12;;;;;;;3.80;1.60;;;40.90;42.70;;;;;;4994310;28;20196;-71
2022/05/27 11:54:18;;;;;;;5.47;2.22;;;41.10;41.90;;;;;;4978420;28;20203;-72
2022/05/27 11:57:02;;;;;;;1.25;1.25;;;41.20;41.90;;;;;;4979269;28;20283;-73
2022/05/27 11:59:46;;;;;;;1.40;1.30;;;41.40;42.40;;;;;;4992128;28;20662;-71
2022/05/27 12:02:23;;;;;;;2.17;1.27;;;41.30;42.50;;;;;;5012789;28;20183;-71
2022/05/27 12:04:58;;;;;;;2.28;1.13;;;41.30;43.30;;;;;;5014810;28;20195;-71
2022/05/27 12:07:23;;;;;;;2.20;1.15;;;41.60;41.70;;;;;;5015192;28;20179;-71
2022/05/27 12:10:23;;;;;;;3.35;1.30;;;41.70;41.50;;;;;;5014871;28;20187;-71
2022/05/27 12:13:00;;;;;;;1.60;1.42;;;41.70;41.90;;;;;;5010339;28;20486;-72
2022/05/27 12:15:36;;;;;;;1.40;1.30;;;41.60;44.00;;;;;;5013263;28;20730;-71
2022/05/27 12:18:07;;;;;;;4.43;1.50;;;41.20;42.40;;;;;;5012225;28;20202;-71
2022/05/27 12:20:35;;;;;;;3.28;1.05;;;40.90;42.10;;;;;;5009683;28;20299;-71
2022/05/27 12:23:06;;;;;;;1.30;1.20;;;40.80;42.80;;;;;;5011224;28;20685;-71
2022/05/27 12:25:41;;;;;;;2.05;1.25;;;41.10;41.90;;;;;;5013252;28;20329;-71
2022/05/27 12:28:08;;;;;;;1.23;1.10;;;41.30;43.30;;;;;;5015441;28;20286;-72
2022/05/27 12:30:41;;;;;;;1.58;1.48;;;41.60;43.20;;;;;;5042800;28;20197;-72
2022/05/27 12:33:17;;;;;;;3.08;1.30;;;41.90;41.60;;;;;;5087965;28;20194;-72
2022/05/27 12:35:50;;;;;;;1.75;1.63;;;42.30;43.50;;;;;;5061271;28;21115;-71
2022/05/27 12:38:25;;;;;;;2.13;1.25;;;42.50;41.50;;;;;;5064520;28;20187;-72
2022/05/27 12:40:55;;;;;;;2.38;1.55;;;42.60;40.80;;;;;;5064111;28;20226;-71
2022/05/27 12:43:27;;;;;;;3.15;1.42;;;42.80;40.30;;;;;;5067449;28;20179;-71
2022/05/27 12:46:12;;;;;;;2.28;1.40;;;43.10;42.40;;;;;;5068242;28;20621;-72
2022/05/27 12:48:44;;;;;;;5.70;1.17;;;43.20;40.60;;;;;;5073636;28;20179;-71
2022/05/27 12:51:15;;;;;;;1.20;1.20;;;43.30;40.70;;;;;;5071221;28;20186;-73
2022/05/27 12:53:53;;;;;;;1.15;1.15;;;43.60;39.10;;;;;;5090456;28;20248;-71
2022/05/27 13:02:14;;;;;;;4.80;1.27;;;42.40;39.80;;;;;;5067639;28;20197;-71
2022/05/27 13:04:50;;;;;;;1.00;1.00;;;41.70;40.10;;;;;;5081269;28;20873;-71
2022/05/27 13:07:33;;;;;;;1.40;1.30;;;41.10;40.50;;;;;;5066835;28;20185;-72
2022/05/27 13:10:18;;;;;;;1.85;1.75;;;40.20;41.30;;;;;;5062289;28;20189;-73
2022/05/27 13:12:47;;;;;;;2.05;1.50;;;39.60;42.20;;;;;;5068999;28;20178;-72
2022/05/27 13:15:22;;;;;;;2.05;1.88;;;39.30;44.60;;;;;;5089862;28;20186;-74
2022/05/27 13:18:28;;;;;;;1.70;1.60;;;38.80;46.10;;;;;;5073203;28;20279;-71
2022/05/27 13:21:27;;;;;;;2.05;1.40;;;38.00;43.80;;;;;;5003806;28;20235;-72
2022/05/27 13:24:02;;;;;;;2.15;1.88;;;37.30;45.40;;;;;;5005930;28;20193;-73
2022/05/27 13:26:53;;;;;;;2.78;1.80;;;37.00;45.60;;;;;;5004587;28;20184;-73
2022/05/27 13:29:33;;;;;;;2.97;1.60;;;36.90;45.80;;;;;;5007844;28;20207;-72
2022/05/27 13:32:02;;;;;;;1.17;1.17;;;37.20;45.90;;;;;;5004634;28;20191;-72
2022/05/27 13:34:40;;;;;;;1.88;1.73;;;37.50;44.90;;;;;;5003999;28;20203;-72
2022/05/27 13:37:16;;;;;;;1.40;1.30;;;38.00;44.20;;;;;;5008400;28;20591;-71
2022/05/27 13:39:54;;;;;;;3.90;1.65;;;38.40;44.10;;;;;;5000064;28;20211;-74
2022/05/27 13:42:36;;;;;;;5.07;1.50;;;38.80;45.00;;;;;;5004012;28;20192;-72
2022/05/27 13:45:13;;;;;;;1.65;1.55;;;39.30;43.80;;;;;;5009110;28;20254;-72
2022/05/27 13:47:44;;;;;;;3.42;1.58;;;39.90;43.50;;;;;;5003435;28;20373;-72
2022/05/27 13:50:30;;;;;;;1.35;1.17;;;40.30;42.20;;;;;;4990374;28;20973;-73
2022/05/27 13:52:56;;;;;;;1.85;1.75;;;40.60;41.60;;;;;;5004156;28;20195;-73
2022/05/27 13:55:29;;;;;;;1.23;1.23;;;40.40;42.40;;;;;;5000975;28;20189;-73
2022/05/27 13:58:01;;;;;;;1.52;1.40;;;40.50;42.60;;;;;;5043526;28;20639;-73
2022/05/27 14:00:38;;;;;;;2.50;1.30;;;40.90;41.80;;;;;;5070445;28;20733;-73